createdAt,value
2022-11-17T00:02:13.675Z,11.56
2022-11-17T00:04:40.171Z,11.56
2022-11-17T00:07:06.648Z,11.54
2022-11-17T00:09:33.022Z,11.54
2022-11-17T00:12:22.335Z,11.59
2022-11-17T00:14:49.055Z,11.58
2022-11-17T00:17:15.334Z,11.61
2022-11-17T00:20:00.390Z,11.62
2022-11-17T00:22:26.711Z,11.63
2022-11-17T00:24:52.944Z,11.64
2022-11-17T00:27:19.187Z,11.67
2022-11-17T00:29:45.467Z,11.68
2022-11-17T00:32:51.278Z,11.73
2022-11-17T00:35:17.535Z,11.75
2022-11-17T00:38:02.277Z,11.76
2022-11-17T00:40:28.552Z,11.76
2022-11-17T00:42:54.823Z,11.76
2022-11-17T00:45:21.091Z,11.77
2022-11-17T00:47:47.635Z,11.79
2022-11-17T00:50:14.017Z,11.81
2022-11-17T00:52:40.281Z,11.81
2022-11-17T00:55:06.934Z,11.82
2022-11-17T00:57:33.197Z,11.84
2022-11-17T00:59:59.795Z,11.84
2022-11-17T01:02:26.044Z,11.83
2022-11-17T01:04:52.295Z,11.79
2022-11-17T01:07:18.636Z,11.79
2022-11-17T01:09:44.880Z,11.78
2022-11-17T01:12:11.132Z,11.75
2022-11-17T01:14:37.358Z,11.72
2022-11-17T01:17:03.627Z,11.72
2022-11-17T01:19:29.901Z,11.69
2022-11-17T01:21:56.219Z,11.68
2022-11-17T01:24:22.529Z,11.69
2022-11-17T01:26:51.605Z,11.68
2022-11-17T01:29:17.976Z,11.68
2022-11-17T01:31:45.015Z,11.73
2022-11-17T01:34:11.480Z,11.73
2022-11-17T01:36:58.185Z,11.74
2022-11-17T01:39:25.094Z,11.76
2022-11-17T01:41:51.941Z,11.79
2022-11-17T01:44:36.996Z,11.84
2022-11-17T01:47:13.270Z,11.85
2022-11-17T01:49:39.663Z,11.90
2022-11-17T01:52:07.604Z,11.93
2022-11-17T01:54:36.248Z,11.94
2022-11-17T01:57:31.968Z,11.95
2022-11-17T02:00:04.258Z,11.98
2022-11-17T02:02:30.615Z,12.02
2022-11-17T02:05:02.614Z,12.02
2022-11-17T02:07:31.646Z,12.05
2022-11-17T02:09:59.280Z,12.06
2022-11-17T02:12:26.626Z,12.04
2022-11-17T02:14:53.671Z,12.03
2022-11-17T02:17:21.475Z,11.97
2022-11-17T02:19:55.525Z,11.95
2022-11-17T02:22:40.827Z,11.90
2022-11-17T02:25:07.076Z,11.90
2022-11-17T02:27:52.167Z,11.90
2022-11-17T02:30:19.711Z,11.85
2022-11-17T02:33:02.405Z,11.89
2022-11-17T02:35:47.331Z,11.88
2022-11-17T02:38:35.277Z,11.89
2022-11-17T02:41:01.591Z,11.88
2022-11-17T02:43:49.786Z,11.90
2022-11-17T02:46:20.542Z,11.89
2022-11-17T02:48:53.199Z,11.90
2022-11-17T02:51:21.363Z,11.88
2022-11-17T02:53:48.870Z,11.86
2022-11-17T02:56:15.099Z,11.86
2022-11-17T02:58:41.449Z,11.87
2022-11-17T03:01:07.807Z,11.90
2022-11-17T03:03:52.651Z,11.87
2022-11-17T03:06:37.842Z,11.89
2022-11-17T03:09:15.322Z,11.89
2022-11-17T03:11:49.996Z,11.91
2022-11-17T03:14:27.735Z,11.90
2022-11-17T03:17:01.711Z,11.89
2022-11-17T03:19:32.055Z,11.91
2022-11-17T03:22:17.187Z,11.89
2022-11-17T03:24:47.295Z,11.90
2022-11-17T03:27:25.421Z,11.88
2022-11-17T03:29:53.636Z,11.90
2022-11-17T03:32:21.600Z,11.87
2022-11-17T03:34:58.584Z,11.86
2022-11-17T03:37:26.890Z,11.82
2022-11-17T03:39:55.192Z,11.76
2022-11-17T03:42:24.125Z,11.70
2022-11-17T03:44:53.567Z,11.66
2022-11-17T03:47:21.415Z,11.62
2022-11-17T03:49:54.641Z,11.58
2022-11-17T03:52:21.506Z,11.56
2022-11-17T03:54:48.067Z,11.55
2022-11-17T03:57:16.965Z,11.55
2022-11-17T03:59:55.287Z,11.54
2022-11-17T04:02:22.235Z,11.52
2022-11-17T04:05:06.606Z,11.52
2022-11-17T04:07:40.375Z,11.51
2022-11-17T04:10:07.708Z,11.51
2022-11-17T04:12:52.475Z,11.51
2022-11-17T04:15:37.325Z,11.47
2022-11-17T04:18:04.053Z,11.44
2022-11-17T04:20:35.991Z,11.45
2022-11-17T04:23:09.414Z,11.45
2022-11-17T04:25:55.265Z,11.44
2022-11-17T04:28:36.865Z,11.44
2022-11-17T04:31:10.926Z,11.47
2022-11-17T04:33:38.161Z,11.48
2022-11-17T04:36:05.262Z,11.53
2022-11-17T04:38:31.668Z,11.56
2022-11-17T04:41:24.131Z,11.57
2022-11-17T04:43:50.478Z,11.59
2022-11-17T04:46:17.296Z,11.57
2022-11-17T04:48:43.828Z,11.62
2022-11-17T04:51:10.174Z,11.68
2022-11-17T04:53:36.642Z,11.69
2022-11-17T04:56:03.690Z,11.73
2022-11-17T04:58:30.307Z,11.75
2022-11-17T05:01:12.102Z,11.76
2022-11-17T05:03:42.440Z,11.80
2022-11-17T05:06:15.774Z,11.81
2022-11-17T05:08:42.670Z,11.84
2022-11-17T05:11:28.691Z,11.86
2022-11-17T05:13:55.306Z,11.86
2022-11-17T05:16:40.650Z,11.90
2022-11-17T05:19:08.344Z,11.91
2022-11-17T05:21:35.032Z,11.91
2022-11-17T05:24:01.330Z,11.91
2022-11-17T05:26:29.214Z,11.94
2022-11-17T05:28:56.259Z,11.93
2022-11-17T05:31:23.065Z,11.92
2022-11-17T05:33:49.960Z,11.89
2022-11-17T05:36:16.350Z,11.84
2022-11-17T05:38:42.696Z,11.84
2022-11-17T05:41:09.162Z,11.81
2022-11-17T05:43:35.766Z,11.77
2022-11-17T05:46:02.387Z,11.78
2022-11-17T05:48:28.729Z,11.76
2022-11-17T05:50:56.027Z,11.78
2022-11-17T05:53:23.247Z,11.76
2022-11-17T05:55:49.933Z,11.77
2022-11-17T05:58:19.566Z,11.77
2022-11-17T06:00:45.952Z,11.80
2022-11-17T06:03:20.116Z,11.77
2022-11-17T06:05:46.639Z,11.75
2022-11-17T06:08:12.981Z,11.78
2022-11-17T06:10:39.316Z,11.82
2022-11-17T06:13:05.703Z,11.82
2022-11-17T06:15:32.168Z,11.86
2022-11-17T06:18:04.534Z,11.85
2022-11-17T06:20:35.528Z,11.87
2022-11-17T06:23:03.232Z,11.88
2022-11-17T06:25:29.773Z,11.89
2022-11-17T06:27:56.958Z,11.93
2022-11-17T06:30:23.252Z,11.95
2022-11-17T06:32:50.043Z,11.94
2022-11-17T06:35:17.016Z,11.96
2022-11-17T06:37:43.611Z,11.97
2022-11-17T06:40:10.268Z,11.96
2022-11-17T06:42:57.222Z,11.98
2022-11-17T06:45:24.082Z,11.98
2022-11-17T06:47:52.547Z,11.98
2022-11-17T06:50:19.008Z,11.98
2022-11-17T06:52:45.362Z,12.01
2022-11-17T06:55:11.689Z,12.01
2022-11-17T06:57:38.038Z,12.04
2022-11-17T07:00:05.929Z,12.07
2022-11-17T07:02:32.532Z,12.11
2022-11-17T07:04:58.876Z,12.09
2022-11-17T07:07:28.355Z,12.09
2022-11-17T07:09:54.772Z,12.09
2022-11-17T07:12:21.491Z,12.08
2022-11-17T07:14:47.825Z,12.04
2022-11-17T07:17:14.161Z,12.03
2022-11-17T07:19:40.493Z,12.04
2022-11-17T07:22:07.015Z,12.05
2022-11-17T07:24:33.361Z,12.02
2022-11-17T07:26:59.720Z,12.03
2022-11-17T07:29:26.061Z,12.03
2022-11-17T07:31:52.561Z,12.05
2022-11-17T07:34:18.974Z,12.05
2022-11-17T07:36:45.302Z,12.05
2022-11-17T07:39:14.943Z,12.09
2022-11-17T07:41:43.481Z,12.10
2022-11-17T07:44:10.526Z,12.13
2022-11-17T07:46:36.867Z,12.10
2022-11-17T07:49:03.188Z,12.09
2022-11-17T07:51:29.555Z,12.11
2022-11-17T07:53:55.862Z,12.11
2022-11-17T07:56:22.350Z,12.11
2022-11-17T07:58:48.658Z,12.13
2022-11-17T08:01:18.028Z,12.15
2022-11-17T08:03:44.541Z,12.18
2022-11-17T08:06:11.226Z,12.18
2022-11-17T08:08:38.619Z,12.21
2022-11-17T08:11:06.887Z,12.26
2022-11-17T08:13:33.409Z,12.30
2022-11-17T08:16:00.118Z,12.35
2022-11-17T08:18:26.565Z,12.37
2022-11-17T08:20:52.942Z,12.42
2022-11-17T08:23:19.425Z,12.46
2022-11-17T08:25:45.793Z,12.43
2022-11-17T08:28:12.114Z,12.46
2022-11-17T08:30:38.667Z,12.44
2022-11-17T08:33:04.997Z,12.46
2022-11-17T08:35:37.134Z,12.49
2022-11-17T08:38:04.345Z,12.51
2022-11-17T08:40:30.810Z,12.56
2022-11-17T08:43:01.180Z,12.57
2022-11-17T08:45:28.216Z,12.64
2022-11-17T08:47:55.585Z,12.71
2022-11-17T08:50:23.742Z,12.77
2022-11-17T08:52:51.433Z,12.79
2022-11-17T08:55:17.880Z,12.80
2022-11-17T08:57:44.466Z,12.84
2022-11-17T09:00:11.046Z,12.86
2022-11-17T09:02:38.289Z,12.87
2022-11-17T09:05:05.213Z,12.87
2022-11-17T09:07:35.524Z,12.91
2022-11-17T09:10:01.969Z,12.93
2022-11-17T09:12:28.300Z,12.94
2022-11-17T09:14:54.625Z,13.01
2022-11-17T09:17:20.958Z,13.09
2022-11-17T09:19:47.294Z,13.13
2022-11-17T09:22:13.598Z,13.16
2022-11-17T09:24:40.098Z,13.16
2022-11-17T09:27:06.505Z,13.23
2022-11-17T09:29:32.822Z,13.31
2022-11-17T09:31:59.145Z,13.37
2022-11-17T09:34:25.560Z,13.43
2022-11-17T09:36:52.058Z,13.47
2022-11-17T09:39:18.386Z,13.44
2022-11-17T09:41:52.434Z,13.44
2022-11-17T09:44:18.800Z,13.42
2022-11-17T09:47:04.122Z,13.47
2022-11-17T09:49:30.416Z,13.58
2022-11-17T09:52:00.227Z,13.59
2022-11-17T09:54:30.144Z,13.60
2022-11-17T09:56:57.850Z,13.61
2022-11-17T09:59:25.305Z,13.61
2022-11-17T10:01:54.770Z,13.63
2022-11-17T10:04:21.167Z,13.65
2022-11-17T10:06:50.451Z,13.65
2022-11-17T10:09:20.996Z,13.65
2022-11-17T10:11:50.500Z,13.57
2022-11-17T10:14:18.621Z,13.51
2022-11-17T10:16:50.183Z,13.43
2022-11-17T10:19:18.054Z,13.44
2022-11-17T10:21:45.215Z,13.46
2022-11-17T10:24:11.577Z,13.45
2022-11-17T10:26:45.746Z,13.44
2022-11-17T10:29:13.976Z,13.48
2022-11-17T10:31:44.599Z,13.50
2022-11-17T10:34:12.228Z,13.54
2022-11-17T10:36:44.962Z,13.56
2022-11-17T10:39:31.261Z,13.57
2022-11-17T10:41:57.569Z,13.61
2022-11-17T10:44:29.973Z,13.61
2022-11-17T10:47:02.821Z,13.66
2022-11-17T10:49:32.563Z,13.64
2022-11-17T10:52:11.065Z,13.66
2022-11-17T10:54:37.945Z,13.69
2022-11-17T10:57:09.452Z,13.70
2022-11-17T10:59:43.805Z,13.73
2022-11-17T11:02:30.126Z,13.72
2022-11-17T11:05:08.862Z,13.69
2022-11-17T11:07:35.951Z,13.78
2022-11-17T11:10:14.713Z,13.83
2022-11-17T11:12:59.917Z,13.81
2022-11-17T11:15:30.415Z,13.77
2022-11-17T11:17:56.889Z,13.72
2022-11-17T11:20:42.462Z,13.73
2022-11-17T11:23:30.795Z,13.75
2022-11-17T11:26:06.797Z,13.72
2022-11-17T11:28:33.097Z,13.78
2022-11-17T11:31:11.434Z,13.82
2022-11-17T11:33:43.127Z,13.86
2022-11-17T11:36:18.714Z,13.92
2022-11-17T11:38:52.014Z,13.99
2022-11-17T11:41:37.319Z,14.03
2022-11-17T11:44:09.523Z,14.09
2022-11-17T11:46:35.822Z,14.08
2022-11-17T11:49:11.681Z,14.06
2022-11-17T11:51:38.837Z,13.99
2022-11-17T11:54:08.820Z,13.88
2022-11-17T11:56:40.394Z,13.90
2022-11-17T11:59:11.158Z,13.92
2022-11-17T12:01:47.456Z,13.97
2022-11-17T12:04:14.225Z,14.01
2022-11-17T12:06:53.549Z,14.04
2022-11-17T12:09:44.768Z,14.02
2022-11-17T12:12:15.703Z,14.11
2022-11-17T12:15:02.024Z,14.11
2022-11-17T12:17:28.507Z,14.19
2022-11-17T12:19:55.143Z,14.21
2022-11-17T12:22:21.603Z,14.27
2022-11-17T12:24:47.970Z,14.38
2022-11-17T12:27:33.266Z,14.40
2022-11-17T12:29:59.910Z,14.41
2022-11-17T12:32:44.857Z,14.41
2022-11-17T12:35:25.227Z,14.52
2022-11-17T12:38:12.267Z,14.59
2022-11-17T12:40:38.601Z,14.65
2022-11-17T12:43:20.188Z,14.69
2022-11-17T12:45:53.391Z,14.72
2022-11-17T12:48:34.068Z,14.76
2022-11-17T12:51:19.306Z,14.81
2022-11-17T12:53:54.182Z,14.88
2022-11-17T12:56:37.110Z,15.01
2022-11-17T12:59:24.651Z,15.06
2022-11-17T13:02:09.762Z,15.05
2022-11-17T13:04:43.813Z,15.01
2022-11-17T13:07:20.321Z,14.93
2022-11-17T13:09:54.374Z,14.83
2022-11-17T13:12:21.704Z,14.69
2022-11-17T13:14:58.948Z,14.61
2022-11-17T13:17:30.562Z,14.53
2022-11-17T13:19:59.912Z,14.47
2022-11-17T13:22:26.365Z,14.50
2022-11-17T13:24:53.836Z,14.51
2022-11-17T13:27:22.135Z,14.60
2022-11-17T13:29:48.821Z,14.62
2022-11-17T13:32:16.800Z,14.67
2022-11-17T13:35:01.617Z,14.69
2022-11-17T13:37:28.768Z,14.69
2022-11-17T13:40:02.723Z,14.73
2022-11-17T13:42:33.036Z,14.77
2022-11-17T13:45:05.080Z,14.80
2022-11-17T13:47:37.404Z,14.73
2022-11-17T13:50:22.652Z,14.73
2022-11-17T13:52:53.808Z,14.72
2022-11-17T13:55:20.758Z,14.69
2022-11-17T13:57:54.824Z,14.69
2022-11-17T14:00:21.362Z,14.68
2022-11-17T14:02:54.926Z,14.65
2022-11-17T14:05:23.358Z,14.66
2022-11-17T14:07:50.837Z,14.64
2022-11-17T14:10:20.230Z,14.64
2022-11-17T14:12:50.289Z,14.54
2022-11-17T14:15:24.586Z,14.50
2022-11-17T14:17:51.969Z,14.48
2022-11-17T14:20:24.285Z,14.47
2022-11-17T14:23:01.500Z,14.43
2022-11-17T14:25:28.528Z,14.45
2022-11-17T14:27:54.981Z,14.46
2022-11-17T14:30:21.466Z,14.42
2022-11-17T14:32:48.317Z,14.40
2022-11-17T14:35:15.167Z,14.39
2022-11-17T14:37:42.070Z,14.37
2022-11-17T14:40:20.426Z,14.31
2022-11-17T14:42:46.782Z,14.30
2022-11-17T14:45:16.840Z,14.29
2022-11-17T14:47:43.653Z,14.22
2022-11-17T14:50:12.900Z,14.21
2022-11-17T14:52:41.004Z,14.20
2022-11-17T14:55:07.931Z,14.16
2022-11-17T14:57:34.283Z,14.13
2022-11-17T15:00:00.750Z,14.09
2022-11-17T15:02:27.089Z,14.06
2022-11-17T15:04:53.957Z,14.03
2022-11-17T15:07:20.692Z,14.02
2022-11-17T15:09:47.046Z,14.01
2022-11-17T15:12:13.399Z,13.99
2022-11-17T15:14:39.767Z,14.00
2022-11-17T15:17:09.854Z,13.99
2022-11-17T15:19:39.350Z,13.97
2022-11-17T15:22:05.649Z,13.98
2022-11-17T15:24:32.001Z,13.98
2022-11-17T15:26:58.348Z,13.96
2022-11-17T15:29:24.770Z,13.94
2022-11-17T15:31:51.086Z,13.92
2022-11-17T15:34:20.406Z,13.86
2022-11-17T15:36:47.460Z,13.85
2022-11-17T15:39:14.418Z,13.84
2022-11-17T15:41:41.225Z,13.81
2022-11-17T15:44:07.833Z,13.77
2022-11-17T15:46:34.168Z,13.77
2022-11-17T15:49:00.548Z,13.74
2022-11-17T15:51:27.409Z,13.67
2022-11-17T15:53:56.490Z,13.61
2022-11-17T15:56:23.774Z,13.53
2022-11-17T15:58:57.289Z,13.45
2022-11-17T16:01:23.603Z,13.43
2022-11-17T16:03:50.086Z,13.39
2022-11-17T16:06:16.463Z,13.35
2022-11-17T16:08:43.031Z,13.35
2022-11-17T16:11:10.022Z,13.33
2022-11-17T16:13:36.737Z,13.30
2022-11-17T16:16:03.518Z,13.27
2022-11-17T16:18:32.514Z,13.25
2022-11-17T16:21:04.943Z,13.26
2022-11-17T16:23:36.758Z,13.25
2022-11-17T16:26:03.110Z,13.21
2022-11-17T16:28:29.474Z,13.18
2022-11-17T16:30:55.790Z,13.16
2022-11-17T16:33:22.141Z,13.16
2022-11-17T16:35:48.541Z,13.20
2022-11-17T16:38:16.123Z,12.98
2022-11-17T16:40:42.836Z,13.14
2022-11-17T16:43:10.977Z,13.12
2022-11-17T16:45:41.879Z,13.13
2022-11-17T16:48:09.055Z,13.08
2022-11-17T16:50:38.785Z,13.07
2022-11-17T16:53:05.123Z,13.06
2022-11-17T16:55:35.198Z,13.04
2022-11-17T16:58:02.430Z,13.00
2022-11-17T17:00:28.798Z,12.92
2022-11-17T17:02:56.997Z,12.90
2022-11-17T17:05:24.362Z,12.87
2022-11-17T17:07:51.089Z,12.84
2022-11-17T17:10:17.484Z,12.84
2022-11-17T17:12:43.876Z,12.79
2022-11-17T17:15:10.509Z,12.73
2022-11-17T17:17:36.838Z,12.74
2022-11-17T17:20:03.217Z,12.59
2022-11-17T17:22:29.602Z,12.74
2022-11-17T17:24:55.995Z,12.78
2022-11-17T17:27:22.321Z,12.77
2022-11-17T17:29:48.746Z,12.71
2022-11-17T17:32:15.163Z,12.69
2022-11-17T17:34:42.606Z,12.68
2022-11-17T17:37:08.938Z,12.70
2022-11-17T17:39:35.385Z,12.70
2022-11-17T17:42:01.728Z,12.71
2022-11-17T17:44:28.069Z,12.71
2022-11-17T17:46:57.019Z,12.69
2022-11-17T17:49:23.337Z,12.67
2022-11-17T17:51:49.722Z,12.63
2022-11-17T17:54:17.888Z,12.59
2022-11-17T17:56:44.605Z,12.60
2022-11-17T17:59:10.968Z,12.56
2022-11-17T18:01:37.492Z,12.57
2022-11-17T18:04:10.077Z,12.58
2022-11-17T18:06:40.606Z,12.53
2022-11-17T18:09:07.727Z,12.52
2022-11-17T18:11:35.523Z,12.50
2022-11-17T18:14:01.937Z,12.49
2022-11-17T18:16:29.634Z,12.52
2022-11-17T18:18:57.799Z,12.51
2022-11-17T18:21:24.157Z,12.49
2022-11-17T18:23:51.888Z,12.48
2022-11-17T18:26:19.647Z,12.49
2022-11-17T18:28:50.373Z,12.48
2022-11-17T18:31:16.694Z,12.50
2022-11-17T18:33:45.223Z,12.41
2022-11-17T18:36:11.873Z,12.38
2022-11-17T18:38:38.720Z,12.38
2022-11-17T18:41:09.481Z,12.33
2022-11-17T18:43:36.221Z,12.30
2022-11-17T18:46:22.801Z,12.31
2022-11-17T18:48:51.502Z,12.36
2022-11-17T18:51:20.617Z,12.30
2022-11-17T18:53:48.417Z,12.31
2022-11-17T18:56:15.842Z,12.30
2022-11-17T18:58:42.722Z,12.30
2022-11-17T19:01:11.168Z,12.29
2022-11-17T19:03:38.437Z,12.28
2022-11-17T19:06:05.585Z,12.25
2022-11-17T19:08:32.694Z,12.28
2022-11-17T19:11:04.708Z,12.27
2022-11-17T19:13:33.477Z,12.24
2022-11-17T19:16:04.549Z,12.23
2022-11-17T19:18:30.898Z,12.18
2022-11-17T19:21:07.464Z,12.10
2022-11-17T19:23:38.141Z,12.11
2022-11-17T19:26:08.562Z,12.11
2022-11-17T19:28:35.523Z,12.09
2022-11-17T19:31:03.573Z,12.10
2022-11-17T19:33:30.825Z,12.11
2022-11-17T19:35:57.368Z,12.12
2022-11-17T19:38:23.834Z,12.15
2022-11-17T19:40:50.158Z,12.13
2022-11-17T19:43:19.124Z,12.14
2022-11-17T19:45:45.487Z,12.11
2022-11-17T19:48:11.904Z,12.11
2022-11-17T19:50:38.249Z,12.13
2022-11-17T19:53:04.566Z,12.15
2022-11-17T19:55:32.995Z,12.12
2022-11-17T19:57:59.521Z,12.18
2022-11-17T20:00:25.869Z,12.16
2022-11-17T20:02:52.280Z,12.13
2022-11-17T20:05:18.765Z,12.09
2022-11-17T20:07:45.137Z,12.11
2022-11-17T20:10:11.518Z,12.08
2022-11-17T20:12:37.973Z,12.06
2022-11-17T20:15:04.398Z,12.10
2022-11-17T20:17:30.758Z,12.08
2022-11-17T20:19:57.166Z,12.05
2022-11-17T20:22:23.573Z,11.94
2022-11-17T20:24:49.916Z,11.93
2022-11-17T20:27:16.247Z,11.86
2022-11-17T20:29:42.732Z,11.84
2022-11-17T20:32:09.141Z,11.78
2022-11-17T20:34:35.469Z,11.68
2022-11-17T20:37:01.874Z,11.68
2022-11-17T20:39:28.229Z,11.71
2022-11-17T20:41:54.644Z,11.67
2022-11-17T20:44:24.291Z,11.69
2022-11-17T20:46:55.342Z,11.73
2022-11-17T20:49:22.109Z,11.74
2022-11-17T20:51:48.601Z,11.74
2022-11-17T20:54:14.962Z,11.72
2022-11-17T20:56:41.556Z,11.75
2022-11-17T20:59:08.073Z,11.78
2022-11-17T21:01:34.449Z,11.76
2022-11-17T21:04:00.819Z,11.75
2022-11-17T21:06:27.846Z,11.68
2022-11-17T21:08:54.205Z,11.64
2022-11-17T21:11:40.913Z,11.63
2022-11-17T21:14:08.165Z,11.60
2022-11-17T21:16:34.712Z,11.56
2022-11-17T21:19:01.069Z,11.53
2022-11-17T21:21:27.615Z,11.43
2022-11-17T21:23:54.566Z,11.39
2022-11-17T21:26:22.784Z,11.35
2022-11-17T21:28:49.262Z,11.26
2022-11-17T21:31:23.515Z,11.26
2022-11-17T21:33:54.669Z,11.25
2022-11-17T21:36:22.269Z,11.21
2022-11-17T21:38:48.693Z,11.19
2022-11-17T21:41:19.178Z,11.18
2022-11-17T21:43:46.794Z,11.14
2022-11-17T21:46:14.482Z,11.12
2022-11-17T21:48:41.102Z,11.10
2022-11-17T21:51:13.418Z,11.08
2022-11-17T21:53:39.752Z,11.09
2022-11-17T21:56:07.571Z,11.09
2022-11-17T21:58:34.198Z,11.05
2022-11-17T22:01:14.952Z,10.98
2022-11-17T22:03:41.979Z,10.92
2022-11-17T22:06:09.485Z,10.90
2022-11-17T22:08:36.502Z,10.94
2022-11-17T22:11:03.646Z,10.92
2022-11-17T22:13:29.949Z,10.93
2022-11-17T22:15:56.305Z,10.95
2022-11-17T22:18:22.662Z,10.87
2022-11-17T22:20:52.010Z,10.84
2022-11-17T22:23:18.513Z,10.83
2022-11-17T22:25:52.005Z,10.82
2022-11-17T22:28:18.352Z,10.88
2022-11-17T22:30:44.664Z,10.90
2022-11-17T22:33:11.121Z,10.93
2022-11-17T22:35:38.434Z,10.99
2022-11-17T22:38:04.825Z,10.96
2022-11-17T22:40:31.230Z,11.01
2022-11-17T22:42:59.998Z,11.06
2022-11-17T22:45:29.925Z,11.08
2022-11-17T22:47:56.233Z,11.08
2022-11-17T22:50:22.657Z,11.03
2022-11-17T22:52:49.054Z,11.08
2022-11-17T22:55:15.391Z,11.08
2022-11-17T22:57:41.718Z,11.12
2022-11-17T23:00:08.364Z,11.14
2022-11-17T23:02:34.690Z,11.16
2022-11-17T23:05:01.302Z,11.13
2022-11-17T23:07:27.701Z,11.14
2022-11-17T23:09:54.108Z,11.13
2022-11-17T23:12:20.381Z,11.15
2022-11-17T23:14:46.725Z,11.19
2022-11-17T23:17:13.070Z,11.14
2022-11-17T23:19:39.420Z,11.16
2022-11-17T23:22:05.707Z,11.17
2022-11-17T23:24:32.223Z,11.17
2022-11-17T23:26:58.558Z,11.12
2022-11-17T23:29:24.838Z,11.17
2022-11-17T23:31:51.164Z,11.20
2022-11-17T23:34:17.562Z,11.18
2022-11-17T23:36:43.885Z,11.20
2022-11-17T23:39:10.386Z,11.23
2022-11-17T23:41:37.072Z,11.20
2022-11-17T23:44:03.743Z,11.22
2022-11-17T23:46:30.283Z,11.20
2022-11-17T23:48:57.306Z,11.20
2022-11-17T23:51:24.626Z,11.18
2022-11-17T23:53:50.990Z,11.21
2022-11-17T23:56:18.882Z,11.18
2022-11-17T23:58:45.197Z,11.19
